KDMO/DMO METAR and TAF weather

Enter ICAO airport designator
Station Type Date Time Source
KDMO METAR 2020/11/28 19:53 UTC NOAA

KDMO 281953Z AUTO 23011KT 10SM CLR 13/M02 A3019 RMK AO2 SLP226 T01281022


Station Type Date Time Source
KDMO Decoded METAR 2020/11/28 19:53 UTC NOAA

SEDALIA MEMORIAL AIRPORT, MO, United States (KDMO) 38-43N 93-10W 274M
Nov 28, 2020 - 02:53 PM EST / 2020.11.28 1953 UTC
Wind: from the SW (230 degrees) at 13 MPH (11 KT):0
Visibility: 10 mile(s):0
Sky conditions: clear
Temperature: 55.0 F (12.8 C)
Dew Point: 28.0 F (-2.2 C)
Relative Humidity: 35%
Pressure (altimeter): 30.19 in. Hg (1022 hPa)
ob: KDMO 281953Z AUTO 23011KT 10SM CLR 13/M02 A3019 RMK AO2 SLP226 T01281022
cycle: 20

Station Type Date Time Source
KDMO TAF UTC NOAA

Error!

Example: see airport list